This is the latest recevied weather packets stored in our database for station/object KI4HRG. If no packets are shown the sender has not sent any weather packets the latest 10 day(s).
| Time | Temp. | Humidity | Pressure | Rain* | Wind** | Luminosity | Snow |
|---|---|---|---|---|---|---|---|
| 1777900261 | 15.56° C | 71% | 1018.1 hPa | 0 mm | - | 248 W/m² | - |
| 1777899957 | 15.56° C | 72% | 1018 hPa | 0 mm | - | 257 W/m² | - |
| 1777899654 | 15° C | 75% | 1018 hPa | 0 mm | - | 241 W/m² | - |
| 1777899352 | 14.44° C | 76% | 1018.1 hPa | 0 mm | - | 214 W/m² | - |
| 1777899049 | 14.44° C | 78% | 1018.1 hPa | 0 mm | - | 183 W/m² | - |
| 1777898746 | 14.44° C | 76% | 1018.1 hPa | 0 mm | - | 114 W/m² | - |
| 1777898444 | 13.89° C | 81% | 1018 hPa | 0 mm | - | 95 W/m² | - |
| 1777898141 | 13.89° C | 83% | 1018.1 hPa | 0 mm | - | 82 W/m² | - |
| 1777897838 | 12.78° C | 87% | 1018 hPa | 0 mm | - | 67 W/m² | - |
| 1777897534 | 11.67° C | 92% | 1018 hPa | 0 mm | - | 65 W/m² | - |
| 1777897230 | 10.56° C | 95% | 1018 hPa | 0 mm | - | 59 W/m² | - |
| 1777896926 | 10.56° C | 95% | 1017.9 hPa | 0 mm | - | 48 W/m² | - |
| 1777896623 | 10° C | 96% | 1017.9 hPa | 0 mm | - | 43 W/m² | - |
| 1777896320 | 9.44° C | 97% | 1017.7 hPa | 0 mm | - | 47 W/m² | - |
| 1777896019 | 10° C | 98% | 1017.5 hPa | 0 mm | - | 47 W/m² | - |
| 1777895716 | 9.44° C | 99% | 1017.6 hPa | 0 mm | - | 48 W/m² | - |
| 1777895413 | 8.89° C | 99% | 1017.7 hPa | 0 mm | - | 49 W/m² | - |
| 1777895111 | 8.33° C | 99% | 1017.9 hPa | 0 mm | - | 45 W/m² | - |
| 1777894808 | 7.78° C | 99% | 1017.7 hPa | 0 mm | - | 40 W/m² | - |
| 1777894504 | 7.78° C | 99% | 1017.7 hPa | 0 mm | - | 32 W/m² | - |
| 1777894202 | 7.22° C | 99% | 1017.6 hPa | 0 mm | - | 24 W/m² | - |
| 1777893898 | 7.22° C | 99% | 1017.5 hPa | 0 mm | - | 18 W/m² | - |
| 1777893595 | 7.22° C | 99% | 1017.5 hPa | 0 mm | - | 13 W/m² | - |
| 1777893291 | 7.22° C | 99% | 1017.4 hPa | 0 mm | - | 8 W/m² | - |
| 1777892988 | 7.22° C | 99% | 1017.3 hPa | 0 mm | - | 6 W/m² | - |
* Rain latest hour (hover to see other rain measurements)
** Current wind speed in m/s (hover to see current wind gust speed)